Time;durP1;ratioP1;P1;durP2;ratioP2;P2;SDS_P1;SDS_P2;PMS_P1;PMS_P2;Temp;Humidity;BMP_temperature;BMP_pressure;BME280_temperature;BME280_humidity;BME280_pressure;Samples;Min_cycle;Max_cycle;Signal;HPM_P1;HPM_P2
2022/11/04 00:01:20;;;;;;;13.57;5.30;;;;;;;14.81;100.00;93530.13;4997492;28;20026;-88
2022/11/04 00:03:45;;;;;;;6.20;2.97;;;;;;;14.90;100.00;93524.81;4980202;28;20084;-88
2022/11/04 00:06:11;;;;;;;9.77;4.65;;;;;;;14.62;100.00;93511.97;4976985;28;20034;-88
2022/11/04 00:08:36;;;;;;;9.18;3.50;;;;;;;14.82;100.00;93516.63;4980150;28;20424;-88
2022/11/04 00:13:46;;;;;;;12.98;3.83;;;;;;;15.06;100.00;93494.22;4982814;28;20543;-88
2022/11/04 00:18:58;;;;;;;47.80;5.03;;;;;;;14.60;100.00;93487.81;4997471;28;20085;-88
2022/11/04 00:29:38;;;;;;;5.05;1.95;;;;;;;15.12;100.00;93500.84;4982690;28;20089;-88
2022/11/04 00:34:47;;;;;;;3.45;1.80;;;;;;;14.98;100.00;93495.78;4997395;28;20106;-88
2022/11/04 00:37:13;;;;;;;6.53;2.47;;;;;;;14.80;100.00;93487.16;4997217;28;20030;-88
2022/11/04 00:39:38;;;;;;;3.30;2.20;;;;;;;14.91;100.00;93484.97;4979856;28;20450;-87
2022/11/04 00:42:04;;;;;;;5.05;2.25;;;;;;;15.05;100.00;93474.19;4997030;28;20034;-88
2022/11/04 00:44:29;;;;;;;5.63;2.25;;;;;;;14.74;100.00;93463.94;4997163;28;20045;-87
2022/11/04 00:46:55;;;;;;;4.18;1.83;;;;;;;14.53;100.00;93467.97;4979862;28;20031;-87
2022/11/04 00:49:20;;;;;;;3.13;1.92;;;;;;;14.65;100.00;93462.06;4997162;28;20030;-87
2022/11/04 00:51:46;;;;;;;4.78;1.80;;;;;;;14.89;100.00;93467.91;4998616;28;20018;-88
2022/11/04 00:54:12;;;;;;;9.27;2.13;;;;;;;15.02;100.00;93459.00;4967752;28;20039;-87
2022/11/04 00:56:40;;;;;;;3.83;1.30;;;;;;;15.19;100.00;93465.28;4983149;28;20042;-88
2022/11/04 00:59:06;;;;;;;4.47;1.27;;;;;;;15.32;100.00;93463.53;4983913;28;20034;-88
2022/11/04 01:01:32;;;;;;;4.13;1.10;;;;;;;15.41;100.00;93467.66;5000699;28;20030;-88
2022/11/04 01:03:57;;;;;;;5.28;1.50;;;;;;;15.18;100.00;93475.06;4983516;28;20380;-89
2022/11/04 01:06:25;;;;;;;4.30;1.10;;;;;;;15.75;100.00;93466.97;4983139;28;20030;-88
2022/11/04 01:08:55;;;;;;;3.40;1.20;;;;;;;15.17;100.00;93468.25;4983298;28;20028;-88
2022/11/04 01:11:21;;;;;;;3.53;1.15;;;;;;;15.89;100.00;93450.88;4982991;28;20469;-88
2022/11/04 01:13:50;;;;;;;1.85;1.10;;;;;;;15.95;100.00;93442.47;4983540;28;20030;-88
2022/11/04 01:16:16;;;;;;;2.83;0.90;;;;;;;15.89;100.00;93446.38;5000403;28;20036;-88
2022/11/04 01:18:41;;;;;;;1.98;0.73;;;;;;;16.00;100.00;93432.78;4983182;28;20109;-88
2022/11/04 01:21:08;;;;;;;5.05;1.33;;;;;;;16.35;100.00;93440.38;5000494;28;20034;-88
2022/11/04 01:23:34;;;;;;;2.38;1.02;;;;;;;16.12;100.00;93424.91;4983136;28;20057;-88
2022/11/04 01:25:59;;;;;;;8.70;1.00;;;;;;;16.15;100.00;93410.28;4983297;28;20034;-89
2022/11/04 01:28:25;;;;;;;2.00;0.82;;;;;;;16.32;100.00;93417.25;4982681;28;20037;-87
2022/11/04 01:30:58;;;;;;;1.15;0.82;;;;;;;16.18;100.00;93417.56;4982936;28;20045;-88
2022/11/04 01:33:23;;;;;;;4.15;0.82;;;;;;;16.31;100.00;93394.56;4967859;28;20053;-88
2022/11/04 01:35:49;;;;;;;4.20;1.17;;;;;;;16.32;100.00;93402.19;4966679;28;20061;-88
2022/11/04 01:38:15;;;;;;;1.95;0.77;;;;;;;16.36;100.00;93412.88;4965950;28;20459;-88
2022/11/04 01:40:41;;;;;;;5.43;1.17;;;;;;;16.00;100.00;93411.66;4981865;28;20423;-88
2022/11/04 01:43:16;;;;;;;1.77;0.80;;;;;;;16.23;100.00;93409.41;4980154;28;20037;-89
2022/11/04 01:45:44;;;;;;;3.05;1.10;;;;;;;16.13;100.00;93415.91;4982212;28;20032;-89
2022/11/04 01:48:23;;;;;;;2.42;1.05;;;;;;;15.86;100.00;93415.31;4963668;28;20041;-88
2022/11/04 01:50:49;;;;;;;3.50;1.02;;;;;;;15.92;100.00;93415.91;4964180;28;20026;-88
2022/11/04 01:53:20;;;;;;;6.95;1.00;;;;;;;16.09;100.00;93407.84;4982763;28;20034;-88
2022/11/04 01:55:54;;;;;;;4.35;1.13;;;;;;;16.11;100.00;93407.53;4967158;28;20442;-89
2022/11/04 01:58:22;;;;;;;2.55;1.27;;;;;;;15.95;100.00;93394.13;4966394;28;20031;-87
2022/11/04 02:00:53;;;;;;;2.25;1.35;;;;;;;16.04;100.00;93388.78;4999739;28;20030;-88
2022/11/04 02:03:33;;;;;;;2.30;1.10;;;;;;;16.05;100.00;93387.66;4981566;28;20026;-88
2022/11/04 02:05:59;;;;;;;2.35;1.25;;;;;;;15.89;100.00;93388.28;4982546;28;20077;-88
2022/11/04 02:08:25;;;;;;;6.80;1.58;;;;;;;15.90;100.00;93371.34;4966411;28;20034;-88
2022/11/04 02:11:09;;;;;;;3.97;1.77;;;;;;;15.91;100.00;93372.13;4966312;28;20030;-88
2022/11/04 02:13:40;;;;;;;4.45;1.73;;;;;;;15.85;100.00;93368.88;4983385;28;20033;-89
2022/11/04 02:16:15;;;;;;;4.47;1.63;;;;;;;15.76;100.00;93357.59;4982535;28;20430;-88
2022/11/04 02:18:58;;;;;;;3.35;1.67;;;;;;;15.62;100.00;93353.38;4999373;28;20022;-88
2022/11/04 02:21:39;;;;;;;3.38;1.75;;;;;;;15.60;100.00;93331.81;4998995;28;20428;-88
2022/11/04 02:24:35;;;;;;;7.22;2.20;;;;;;;15.57;100.00;93331.69;4982048;28;20092;-89
2022/11/04 02:27:05;;;;;;;3.67;1.77;;;;;;;15.64;100.00;93329.28;4999714;28;20037;-88
2022/11/04 02:30:17;;;;;;;6.72;1.83;;;;;;;16.02;100.00;93319.63;4982153;28;20041;-89
2022/11/04 02:32:51;;;;;;;3.15;1.95;;;;;;;15.86;100.00;93304.38;4998936;28;20026;-89
2022/11/04 02:35:30;;;;;;;5.47;1.60;;;;;;;15.80;100.00;93292.50;4981868;28;20121;-89
2022/11/04 02:38:20;;;;;;;3.45;1.70;;;;;;;15.88;100.00;93278.41;4981920;28;20125;-90
2022/11/04 02:40:59;;;;;;;8.57;1.85;;;;;;;15.73;100.00;93263.97;4998819;28;20037;-89
2022/11/04 02:43:41;;;;;;;6.10;1.70;;;;;;;15.43;100.00;93263.34;4982245;28;20034;-89
2022/11/04 02:46:14;;;;;;;4.68;1.90;;;;;;;15.58;100.00;93249.53;4983073;28;20057;-89
2022/11/04 02:48:58;;;;;;;3.72;2.05;;;;;;;15.73;100.00;93248.16;4981865;28;20038;-88
2022/11/04 02:51:32;;;;;;;;;;;;;;;15.81;100.00;93241.97;4982171;28;20140;-89
2022/11/04 02:54:10;;;;;;;2.78;1.40;;;;;;;15.96;100.00;93232.69;4981490;28;19956;-88
2022/11/04 02:56:49;;;;;;;3.38;1.60;;;;;;;15.90;100.00;93226.06;4981449;28;20104;-89
2022/11/04 02:59:49;;;;;;;3.33;1.58;;;;;;;15.93;100.00;93230.72;4982855;28;20410;-89
2022/11/04 03:02:22;;;;;;;5.47;1.77;;;;;;;15.74;100.00;93230.41;4962145;28;20042;-89
2022/11/04 03:04:50;;;;;;;3.80;1.30;;;;;;;15.78;100.00;93234.72;4946377;28;20026;-89
2022/11/04 03:07:19;;;;;;;2.83;1.48;;;;;;;15.81;100.00;93255.19;4962178;28;20034;-88
2022/11/04 03:09:49;;;;;;;3.55;1.25;;;;;;;15.98;100.00;93237.63;4962019;28;20424;-88
2022/11/04 03:12:19;;;;;;;4.40;1.42;;;;;;;15.97;100.00;93230.81;4977178;28;20049;-88
2022/11/04 03:14:51;;;;;;;3.47;1.88;;;;;;;16.11;100.00;93241.81;4961918;28;20416;-89
2022/11/04 03:17:31;;;;;;;2.42;1.27;;;;;;;16.14;100.00;93240.41;4945934;28;20332;-89
2022/11/04 03:19:58;;;;;;;3.60;1.15;;;;;;;16.39;100.00;93237.75;4946183;28;20034;-88
2022/11/04 03:22:29;;;;;;;5.22;1.50;;;;;;;16.25;100.00;93227.50;4977827;28;20087;-89
2022/11/04 03:24:54;;;;;;;2.53;1.30;;;;;;;16.27;100.00;93229.84;4945698;28;20062;-88
2022/11/04 03:27:54;;;;;;;2.83;1.42;;;;;;;16.56;100.00;93230.69;4945604;28;20042;-88
2022/11/04 03:30:21;;;;;;;2.65;1.20;;;;;;;16.22;100.00;93223.69;4961161;28;20321;-88
2022/11/04 03:33:02;;;;;;;2.90;1.08;;;;;;;16.30;100.00;93221.25;4945639;28;20030;-87
2022/11/04 03:35:28;;;;;;;1.98;1.00;;;;;;;16.14;100.00;93232.47;4978458;28;20042;-88
2022/11/04 03:37:53;;;;;;;3.95;1.20;;;;;;;15.67;100.00;93228.31;4945654;28;20070;-88
2022/11/04 03:40:19;;;;;;;4.28;1.60;;;;;;;15.55;100.00;93229.06;4945133;28;20097;-88
2022/11/04 03:42:49;;;;;;;4.15;1.52;;;;;;;15.46;100.00;93218.59;4977255;28;20037;-88
2022/11/04 03:45:15;;;;;;;5.53;1.48;;;;;;;14.44;100.00;93230.06;4961475;28;20046;-88
2022/11/04 03:47:40;;;;;;;4.50;1.70;;;;;;;14.76;100.00;93238.41;4961742;28;20416;-88
2022/11/04 03:50:10;;;;;;;6.60;1.73;;;;;;;15.35;100.00;93231.44;4961190;28;20035;-88
2022/11/04 03:52:35;;;;;;;2.95;1.40;;;;;;;15.24;100.00;93225.78;4961189;28;20027;-88
2022/11/04 03:55:02;;;;;;;4.82;1.45;;;;;;;14.71;100.00;93233.28;4961118;28;20117;-88
2022/11/04 03:57:43;;;;;;;7.25;2.17;;;;;;;15.07;100.00;93237.25;4961141;28;20035;-87
2022/11/04 04:00:10;;;;;;;4.78;1.50;;;;;;;15.26;100.00;93241.28;4960867;28;20045;-88
2022/11/04 04:02:35;;;;;;;3.42;1.45;;;;;;;15.55;100.00;93239.63;4945265;28;20027;-88
2022/11/04 04:05:15;;;;;;;;;;;;;;;;;;;;;
2022/11/04 04:07:46;;;;;;;4.65;1.40;;;;;;;15.59;100.00;93256.34;4977096;28;20027;-89
2022/11/04 04:10:42;;;;;;;4.57;1.48;;;;;;;16.28;100.00;93234.78;4961089;28;20049;-88
2022/11/04 04:13:15;;;;;;;8.85;1.58;;;;;;;16.55;100.00;93235.19;4962006;28;20027;-88
2022/11/04 04:15:55;;;;;;;5.20;1.40;;;;;;;15.81;100.00;93235.94;4960959;28;20141;-88
2022/11/04 04:18:51;;;;;;;3.78;1.10;;;;;;;16.02;100.00;93198.13;4945350;28;20031;-88
2022/11/04 04:21:21;;;;;;;2.15;1.17;;;;;;;16.01;100.00;93196.59;4940288;28;20089;-88
2022/11/04 04:29:19;;;;;;;3.33;1.20;;;;;;;15.34;100.00;93185.00;4978103;28;20045;-88
2022/11/04 04:31:49;;;;;;;3.92;1.30;;;;;;;15.50;100.00;93179.13;4960249;28;20031;-88
2022/11/04 04:34:17;;;;;;;4.28;1.35;;;;;;;15.26;100.00;93189.28;4961206;28;20027;-88
2022/11/04 04:37:04;;;;;;;8.55;1.90;;;;;;;14.89;100.00;93180.47;4977894;28;20121;-88
2022/11/04 04:45:09;;;;;;;5.43;1.83;;;;;;;14.65;100.00;93184.50;4963222;28;20077;-88
2022/11/04 04:47:44;;;;;;;2.60;1.60;;;;;;;14.51;100.00;93182.91;4976686;28;20050;-87
2022/11/04 04:50:13;;;;;;;4.28;1.40;;;;;;;15.14;100.00;93186.63;4960972;28;20026;-88
2022/11/04 04:52:42;;;;;;;8.20;1.83;;;;;;;15.64;100.00;93171.69;4976333;28;20051;-88
2022/11/04 04:55:08;;;;;;;3.38;1.30;;;;;;;15.56;100.00;93177.81;4960374;28;20035;-88
2022/11/04 04:57:34;;;;;;;3.38;1.20;;;;;;;16.03;100.00;93186.44;4944427;28;20325;-88
2022/11/04 04:59:59;;;;;;;4.93;1.30;;;;;;;16.25;100.00;93177.31;4960405;28;20046;-88
2022/11/04 05:02:25;;;;;;;7.13;1.40;;;;;;;16.09;100.00;93177.22;4977477;28;20284;-88
2022/11/04 05:04:50;;;;;;;4.90;1.25;;;;;;;16.30;100.00;93182.38;4977525;28;20408;-88
2022/11/04 05:07:16;;;;;;;3.30;1.23;;;;;;;16.42;100.00;93188.72;4977390;28;20030;-88
2022/11/04 05:09:41;;;;;;;3.10;1.20;;;;;;;16.60;100.00;93186.63;4960364;28;20351;-87
2022/11/04 05:12:08;;;;;;;3.45;1.70;;;;;;;16.40;100.00;93176.63;4960324;28;20027;-89
2022/11/04 05:14:34;;;;;;;3.75;1.17;;;;;;;16.41;100.00;93174.75;4944734;28;20081;-88
2022/11/04 05:16:59;;;;;;;15.18;1.70;;;;;;;16.36;100.00;93175.00;4959500;28;20043;-87
2022/11/04 05:19:25;;;;;;;6.95;1.30;;;;;;;15.96;100.00;93179.06;4960707;28;20027;-88
2022/11/04 05:21:54;;;;;;;6.20;1.50;;;;;;;16.06;100.00;93189.22;4977295;28;20031;-88
2022/11/04 05:24:19;;;;;;;7.63;1.67;;;;;;;15.67;100.00;93194.78;4960695;28;20065;-88
2022/11/04 05:26:44;;;;;;;7.03;1.38;;;;;;;15.98;100.00;93198.00;4977375;28;20066;-89
2022/11/04 05:29:11;;;;;;;3.38;1.17;;;;;;;16.27;100.00;93193.59;4960434;28;20097;-88
2022/11/04 05:31:37;;;;;;;3.10;1.30;;;;;;;16.47;100.00;93191.16;4993618;28;20308;-88
2022/11/04 05:34:04;;;;;;;1.38;1.02;;;;;;;16.40;100.00;93173.22;4977986;28;20037;-88
2022/11/04 05:36:31;;;;;;;1.85;1.35;;;;;;;16.00;100.00;93158.06;4960583;28;20438;-87
2022/11/04 05:38:57;;;;;;;2.53;1.10;;;;;;;16.15;100.00;93167.97;4996017;28;20427;-87
2022/11/04 05:41:26;;;;;;;5.00;1.75;;;;;;;15.91;100.00;93182.69;4981972;28;20026;-88
2022/11/04 05:43:53;;;;;;;4.65;1.65;;;;;;;16.13;100.00;93161.47;4982504;28;20067;-88
2022/11/04 05:46:20;;;;;;;7.88;1.00;;;;;;;16.02;100.00;93146.06;4982660;28;20129;-88
2022/11/04 05:48:45;;;;;;;6.43;1.23;;;;;;;16.18;100.00;93132.19;4982954;28;20030;-87
2022/11/04 05:51:18;;;;;;;4.75;1.30;;;;;;;16.23;100.00;93119.53;4982660;28;20032;-86
2022/11/04 05:53:43;;;;;;;3.30;1.48;;;;;;;14.86;100.00;93144.97;5000019;28;20034;-86
2022/11/04 05:56:09;;;;;;;9.98;1.60;;;;;;;15.30;100.00;93147.19;4999706;28;20034;-87
2022/11/04 05:58:34;;;;;;;2.90;1.30;;;;;;;15.36;100.00;93145.88;5000024;28;20034;-87
2022/11/04 06:01:11;;;;;;;4.45;1.75;;;;;;;15.41;100.00;93155.44;4982550;28;20038;-87
2022/11/04 06:03:37;;;;;;;3.88;1.30;;;;;;;15.46;100.00;93159.75;4982439;28;20030;-87
2022/11/04 06:06:02;;;;;;;5.32;1.50;;;;;;;14.77;100.00;93170.63;4982466;28;20474;-85
2022/11/04 06:08:29;;;;;;;2.88;1.35;;;;;;;15.43;100.00;93163.81;4981929;28;20427;-86
2022/11/04 06:10:54;;;;;;;3.65;1.30;;;;;;;15.57;100.00;93168.78;4982211;28;20026;-86
2022/11/04 06:13:19;;;;;;;6.15;1.33;;;;;;;15.58;100.00;93166.94;4982010;28;20030;-88
2022/11/04 06:15:45;;;;;;;8.20;1.27;;;;;;;15.46;100.00;93178.22;4982183;28;20416;-87
2022/11/04 06:18:11;;;;;;;5.45;1.33;;;;;;;15.71;100.00;93194.09;4982472;28;20030;-87
2022/11/04 06:20:36;;;;;;;1.70;1.00;;;;;;;15.88;100.00;93201.81;4981743;28;20058;-88
2022/11/04 06:23:02;;;;;;;20.85;2.10;;;;;;;15.07;100.00;93226.72;4981962;28;20446;-86
2022/11/04 06:25:28;;;;;;;5.50;1.38;;;;;;;15.47;100.00;93222.78;4965796;28;20038;-88
2022/11/04 06:27:53;;;;;;;5.53;1.50;;;;;;;15.45;100.00;93229.47;4981646;28;20030;-86
2022/11/04 06:30:22;;;;;;;2.28;1.13;;;;;;;15.83;100.00;93237.13;4998810;28;20026;-87
2022/11/04 06:32:47;;;;;;;5.88;1.20;;;;;;;15.49;100.00;93230.34;4999408;28;20022;-86
2022/11/04 06:35:13;;;;;;;7.40;1.40;;;;;;;15.58;100.00;93270.63;4966170;28;20037;-85
2022/11/04 06:37:38;;;;;;;5.80;1.20;;;;;;;15.65;100.00;93281.47;4974900;28;20032;-85
2022/11/04 06:40:04;;;;;;;2.35;1.00;;;;;;;15.91;100.00;93283.06;4985025;28;20044;-86
2022/11/04 06:42:30;;;;;;;8.88;1.65;;;;;;;15.96;100.00;93290.03;5018104;28;20029;-86
2022/11/04 06:44:56;;;;;;;4.13;1.35;;;;;;;16.19;100.00;93293.03;4985156;28;20036;-86
2022/11/04 06:47:21;;;;;;;4.05;1.42;;;;;;;16.28;100.00;93294.81;5018400;28;20323;-86
2022/11/04 06:49:47;;;;;;;4.00;0.98;;;;;;;16.22;100.00;93281.81;5000054;28;20406;-85
2022/11/04 06:52:12;;;;;;;6.40;1.30;;;;;;;16.00;100.00;93282.22;4985061;28;20033;-85
2022/11/04 06:54:40;;;;;;;3.45;1.00;;;;;;;16.34;100.00;93288.19;5001010;28;20098;-86
2022/11/04 06:57:05;;;;;;;3.38;1.10;;;;;;;16.79;100.00;93295.25;4974735;28;20082;-88
2022/11/04 06:59:31;;;;;;;4.28;1.50;;;;;;;16.56;100.00;93302.09;4981209;28;20376;-86
2022/11/04 07:01:59;;;;;;;6.28;1.05;;;;;;;16.57;100.00;93304.41;4980976;28;20030;-88
2022/11/04 07:04:26;;;;;;;3.00;1.00;;;;;;;16.75;100.00;93310.22;4982068;28;20058;-88
2022/11/04 07:06:52;;;;;;;3.00;0.75;;;;;;;16.90;100.00;93315.94;4983038;28;20038;-87
2022/11/04 07:09:20;;;;;;;3.33;0.90;;;;;;;16.73;100.00;93320.38;5000808;28;20034;-88
2022/11/04 07:11:46;;;;;;;3.08;1.20;;;;;;;16.78;100.00;93317.47;5000685;28;20030;-87
2022/11/04 07:14:11;;;;;;;4.55;0.85;;;;;;;16.93;100.00;93325.88;5000794;28;20034;-88
2022/11/04 07:16:37;;;;;;;1.05;0.55;;;;;;;16.59;92.88;93341.09;5000715;28;20029;-86
2022/11/04 07:19:03;;;;;;;3.67;0.60;;;;;;;16.44;78.74;93334.59;4965086;28;20081;-87
2022/11/04 07:21:28;;;;;;;4.25;0.98;;;;;;;16.54;74.60;93332.28;4961572;28;20034;-86
2022/11/04 07:23:54;;;;;;;3.63;0.77;;;;;;;16.42;82.27;93324.34;4945746;28;20042;-88
2022/11/04 07:26:21;;;;;;;3.35;0.75;;;;;;;16.34;96.34;93325.97;4961706;28;20049;-86
2022/11/04 07:28:47;;;;;;;5.72;0.80;;;;;;;16.23;96.40;93343.34;4952667;28;20035;-85
2022/11/04 07:31:12;;;;;;;1.90;0.75;;;;;;;16.15;92.84;93345.00;4960769;28;20056;-85
2022/11/04 07:33:38;;;;;;;1.65;0.80;;;;;;;15.53;100.00;93334.97;4961272;28;20034;-86
2022/11/04 07:36:05;;;;;;;4.57;0.95;;;;;;;15.39;100.00;93337.09;4961146;28;20070;-86
2022/11/04 07:38:31;;;;;;;3.33;0.52;;;;;;;15.52;74.12;93341.34;4961060;28;20383;-86
2022/11/04 07:41:08;;;;;;;5.93;1.10;;;;;;;15.06;100.00;93349.16;4960875;28;20041;-85
2022/11/04 07:43:34;;;;;;;7.97;1.02;;;;;;;15.36;100.00;93348.31;4977382;28;20339;-85
2022/11/04 07:46:19;;;;;;;3.92;1.25;;;;;;;15.15;100.00;93349.09;4963760;28;20058;-86
2022/11/04 07:48:48;;;;;;;3.78;0.80;;;;;;;14.69;100.00;93344.31;4961386;28;20302;-85
2022/11/04 07:51:33;;;;;;;7.05;1.35;;;;;;;14.89;100.00;93343.94;4963232;28;20470;-85
2022/11/04 07:54:01;;;;;;;6.43;1.45;;;;;;;15.15;100.00;93332.47;4963902;28;20447;-86
2022/11/04 07:56:27;;;;;;;3.35;1.65;;;;;;;15.49;100.00;93317.44;4997608;28;20037;-85
2022/11/04 07:58:53;;;;;;;4.78;1.67;;;;;;;15.50;100.00;93326.94;4980142;28;20030;-86
2022/11/04 08:01:22;;;;;;;10.98;4.28;;;;;;;15.25;100.00;93313.63;4978709;28;20478;-84
2022/11/04 08:03:50;;;;;;;7.95;3.15;;;;;;;15.13;100.00;93324.88;4980253;28;20026;-85
2022/11/04 08:06:17;;;;;;;10.70;3.63;;;;;;;14.81;100.00;93333.16;4960693;28;20031;-83
2022/11/04 08:08:44;;;;;;;5.78;2.60;;;;;;;14.89;100.00;93343.94;4977813;28;20022;-83
2022/11/04 08:11:18;;;;;;;5.85;2.00;;;;;;;15.29;100.00;93354.09;4977542;28;20444;-84
2022/11/04 08:13:49;;;;;;;5.68;1.83;;;;;;;15.51;100.00;93358.28;4977636;28;20026;-86
2022/11/04 08:16:17;;;;;;;13.35;1.95;;;;;;;15.47;100.00;93353.97;4980110;28;20092;-87
2022/11/04 08:18:51;;;;;;;3.42;1.63;;;;;;;15.55;100.00;93355.78;4980185;28;20455;-85
2022/11/04 08:21:17;;;;;;;10.48;2.10;;;;;;;16.03;100.00;93350.25;4979709;28;20113;-88
2022/11/04 08:23:44;;;;;;;7.90;1.30;;;;;;;15.58;100.00;93341.91;4979655;28;20085;-90
2022/11/04 08:26:15;;;;;;;4.05;1.10;;;;;;;15.78;100.00;93344.84;4963917;28;20038;-90
2022/11/04 08:28:41;;;;;;;5.63;1.30;;;;;;;15.54;100.00;93346.31;4963723;28;20348;-86
2022/11/04 08:31:10;;;;;;;5.40;1.58;;;;;;;16.26;100.00;93353.25;4974459;28;20026;-84
2022/11/04 08:33:48;;;;;;;9.52;1.58;;;;;;;15.97;100.00;93355.75;4997083;28;20031;-88
2022/11/04 08:36:29;;;;;;;7.05;1.10;;;;;;;16.29;89.51;93346.56;4975424;28;20031;-86
2022/11/04 08:38:55;;;;;;;3.45;1.35;;;;;;;16.66;92.20;93336.78;4973525;28;20455;-85
2022/11/04 08:41:24;;;;;;;6.38;1.23;;;;;;;16.68;75.89;93333.81;4978104;28;20037;-86
2022/11/04 08:43:49;;;;;;;7.72;1.40;;;;;;;16.44;67.72;93318.72;4979673;28;20026;-88
2022/11/04 08:46:15;;;;;;;3.60;1.15;;;;;;;15.96;67.51;93314.56;4979655;28;20026;-87
2022/11/04 08:48:41;;;;;;;7.90;1.00;;;;;;;16.73;68.25;93319.59;4964096;28;20436;-85
2022/11/04 08:51:13;;;;;;;10.18;1.55;;;;;;;16.93;65.22;93318.69;4979125;28;20029;-85
2022/11/04 08:53:39;;;;;;;8.73;1.30;;;;;;;17.18;63.43;93297.50;4979420;28;20022;-85
2022/11/04 08:56:29;;;;;;;5.75;1.42;;;;;;;17.05;64.18;93299.41;4996875;28;20033;-88
2022/11/04 08:58:57;;;;;;;7.82;0.85;;;;;;;16.43;66.23;93296.78;4968255;28;20466;-87
2022/11/04 09:01:23;;;;;;;6.93;1.08;;;;;;;16.58;63.52;93302.53;4963873;28;20479;-88
2022/11/04 09:03:49;;;;;;;5.60;0.90;;;;;;;16.36;67.86;93299.22;4963621;28;20166;-86
2022/11/04 09:06:22;;;;;;;7.13;1.05;;;;;;;16.62;66.99;93306.03;4968091;28;20034;-87
2022/11/04 09:09:02;;;;;;;6.65;1.00;;;;;;;16.85;67.39;93311.63;4960716;28;20053;-86
2022/11/04 09:11:28;;;;;;;2.70;0.93;;;;;;;16.98;66.99;93304.47;4967200;28;20025;-87
2022/11/04 09:13:55;;;;;;;5.25;1.10;;;;;;;17.41;65.01;93299.63;5000376;28;20026;-86
2022/11/04 09:16:20;;;;;;;6.80;1.15;;;;;;;16.83;65.22;93303.28;4990625;28;20058;-88
2022/11/04 09:18:46;;;;;;;3.67;0.82;;;;;;;16.73;66.92;93312.44;4963927;28;20058;-89
2022/11/04 09:21:11;;;;;;;5.28;1.48;;;;;;;17.01;67.83;93300.44;4963856;28;20440;-87
2022/11/04 09:23:37;;;;;;;3.63;1.33;;;;;;;17.05;69.17;93298.66;4981016;28;20022;-88
2022/11/04 09:26:10;;;;;;;14.30;1.33;;;;;;;17.37;67.77;93290.84;4981020;28;20383;-87
2022/11/04 09:28:35;;;;;;;4.80;1.02;;;;;;;17.33;67.49;93292.63;4963480;28;20053;-89
2022/11/04 09:31:05;;;;;;;6.05;1.42;;;;;;;17.69;65.97;93298.09;4963696;28;20054;-87
2022/11/04 09:33:31;;;;;;;9.00;1.00;;;;;;;17.73;60.98;93299.75;4963592;28;20391;-86
2022/11/04 09:35:57;;;;;;;4.60;0.90;;;;;;;17.79;62.53;93297.63;4963611;28;20440;-87
2022/11/04 09:38:24;;;;;;;5.03;0.90;;;;;;;18.08;64.64;93303.69;4963452;28;20054;-85
2022/11/04 09:40:52;;;;;;;8.85;0.85;;;;;;;17.64;61.95;93297.22;4987696;28;20082;-88
2022/11/04 09:43:51;;;;;;;8.48;0.90;;;;;;;17.33;62.11;93321.75;5002049;28;20030;-86
2022/11/04 09:46:18;;;;;;;5.97;0.98;;;;;;;17.29;64.52;93308.41;4986094;28;20037;-86
2022/11/04 09:48:47;;;;;;;4.82;1.17;;;;;;;17.49;65.62;93314.63;4985986;28;20125;-87
2022/11/04 09:51:16;;;;;;;6.55;1.20;;;;;;;17.38;67.48;93305.59;5001808;28;20034;-89
2022/11/04 09:53:45;;;;;;;9.07;1.05;;;;;;;17.22;67.05;93301.03;5001973;28;20025;-87
2022/11/04 09:56:34;;;;;;;6.00;1.05;;;;;;;17.28;66.82;93308.72;5001813;28;20025;-86
2022/11/04 09:59:02;;;;;;;1.92;0.52;;;;;;;17.19;67.59;93308.84;4985783;28;20029;-90
2022/11/04 10:01:43;;;;;;;4.22;1.10;;;;;;;17.56;70.49;93311.41;5001713;28;20030;-88
2022/11/04 10:04:18;;;;;;;2.42;0.90;;;;;;;17.32;67.91;93326.25;4986310;28;20534;-86
2022/11/04 10:07:17;;;;;;;7.65;0.80;;;;;;;17.24;70.79;93333.22;5001640;28;20064;-87
2022/11/04 10:09:51;;;;;;;7.75;1.00;;;;;;;17.20;72.35;93326.28;5001936;28;20026;-88
2022/11/04 10:12:45;;;;;;;4.40;1.30;;;;;;;17.41;71.04;93320.81;5018950;28;20022;-88
2022/11/04 10:15:34;;;;;;;9.10;0.70;;;;;;;17.14;66.96;93328.38;4993446;28;20033;-86
2022/11/04 10:18:13;;;;;;;10.50;1.42;;;;;;;17.03;66.92;93328.06;4999438;28;20332;-86
2022/11/04 10:20:48;;;;;;;5.78;1.13;;;;;;;17.24;69.28;93314.69;4981999;28;20030;-87
2022/11/04 10:23:18;;;;;;;4.47;0.80;;;;;;;17.29;65.49;93318.22;4998960;28;20157;-87
2022/11/04 10:25:51;;;;;;;7.18;1.30;;;;;;;17.25;66.87;93312.81;4981514;28;20069;-86
2022/11/04 10:28:30;;;;;;;3.75;0.63;;;;;;;17.78;63.73;93312.75;4981775;28;20026;-88
2022/11/04 10:30:55;;;;;;;4.50;0.80;;;;;;;17.54;64.56;93321.56;4981729;28;20440;-87
2022/11/04 10:33:32;;;;;;;7.45;1.10;;;;;;;17.88;59.44;93311.47;4982100;28;20122;-85
2022/11/04 10:36:05;;;;;;;5.75;0.80;;;;;;;17.42;60.71;93309.13;4981872;28;20344;-87
2022/11/04 10:38:31;;;;;;;8.75;1.02;;;;;;;17.61;61.46;93319.09;4999550;28;20427;-87
2022/11/04 10:40:57;;;;;;;8.55;0.80;;;;;;;17.81;58.78;93316.59;4998865;28;20030;-87
2022/11/04 10:43:22;;;;;;;5.45;0.70;;;;;;;18.04;56.69;93310.75;4981763;28;20041;-86
2022/11/04 10:46:14;;;;;;;3.08;0.93;;;;;;;18.07;57.21;93318.81;4981254;28;20041;-87
2022/11/04 10:48:49;;;;;;;11.00;0.85;;;;;;;18.19;59.77;93304.69;4997933;28;20030;-87
2022/11/04 10:51:19;;;;;;;6.43;0.88;;;;;;;18.20;57.01;93305.47;4981590;28;20026;-85
2022/11/04 10:53:44;;;;;;;7.35;1.00;;;;;;;18.10;57.06;93306.75;4982157;28;20073;-88
2022/11/04 10:56:21;;;;;;;3.72;1.10;;;;;;;17.92;58.04;93301.72;4964982;28;20077;-87
2022/11/04 10:58:47;;;;;;;4.68;0.90;;;;;;;17.74;56.02;93300.50;4965656;28;20029;-87
2022/11/04 11:01:27;;;;;;;6.18;0.90;;;;;;;18.11;57.68;93308.28;4964983;28;20030;-87
2022/11/04 11:03:53;;;;;;;2.33;0.88;;;;;;;18.08;57.45;93296.50;4981394;28;20466;-88
2022/11/04 11:06:24;;;;;;;5.80;0.80;;;;;;;18.02;57.38;93300.50;4965167;28;20056;-87
2022/11/04 11:08:50;;;;;;;4.03;0.60;;;;;;;18.15;55.60;93303.84;4981331;28;20034;-86
2022/11/04 11:11:44;;;;;;;3.25;0.90;;;;;;;17.82;52.08;93294.28;4968724;28;20038;-87
2022/11/04 11:14:36;;;;;;;2.15;0.75;;;;;;;17.94;51.41;93277.56;4946437;28;20035;-88
2022/11/04 11:17:14;;;;;;;3.63;0.90;;;;;;;18.07;51.20;93288.88;4959843;28;20097;-87
2022/11/04 11:20:17;;;;;;;4.57;0.85;;;;;;;18.44;52.12;93295.81;4978778;28;20451;-88
2022/11/04 11:22:44;;;;;;;6.70;0.93;;;;;;;18.75;51.51;93287.03;4945777;28;20049;-87
2022/11/04 11:25:13;;;;;;;2.40;0.50;;;;;;;18.25;51.38;93294.59;4961703;28;20041;-86
2022/11/04 11:27:40;;;;;;;2.53;0.70;;;;;;;18.64;49.08;93275.41;4961522;28;20062;-88
2022/11/04 11:30:18;;;;;;;2.17;0.57;;;;;;;19.46;47.19;93282.81;4961556;28;20395;-87
2022/11/04 11:32:44;;;;;;;3.88;1.00;;;;;;;18.92;45.83;93275.28;4945548;28;20061;-87
2022/11/04 11:35:16;;;;;;;1.33;0.55;;;;;;;19.26;46.71;93269.56;4945306;28;20062;-89
2022/11/04 11:37:46;;;;;;;1.48;0.57;;;;;;;19.08;44.08;93271.84;4961509;28;20065;-87
2022/11/04 11:40:34;;;;;;;0.95;0.40;;;;;;;18.74;44.70;93269.59;4961473;28;20066;-86
2022/11/04 11:43:00;;;;;;;1.63;0.50;;;;;;;18.66;44.62;93270.56;4960823;28;20062;-87
2022/11/04 11:45:27;;;;;;;1.63;0.55;;;;;;;19.02;43.37;93263.38;4963374;28;20081;-88
2022/11/04 11:47:56;;;;;;;2.60;0.60;;;;;;;19.56;43.56;93266.31;4945146;28;20062;-88
2022/11/04 11:50:32;;;;;;;6.57;0.70;;;;;;;19.16;41.80;93257.59;4960701;28;20035;-87
2022/11/04 11:53:13;;;;;;;1.38;0.40;;;;;;;19.17;43.86;93253.06;4960847;28;20027;-88
2022/11/04 11:55:43;;;;;;;6.75;0.65;;;;;;;18.92;43.57;93254.06;4944744;28;20121;-88
2022/11/04 11:58:47;;;;;;;2.17;0.50;;;;;;;19.68;42.14;93252.13;4961071;28;20027;-89
2022/11/04 12:01:17;;;;;;;1.98;0.60;;;;;;;18.79;43.56;93245.47;4959627;28;20045;-89
2022/11/04 12:03:47;;;;;;;2.78;0.60;;;;;;;19.22;43.19;93252.75;4961045;28;20408;-88
2022/11/04 12:06:18;;;;;;;4.82;0.85;;;;;;;19.00;41.12;93260.31;4944850;28;20042;-88
2022/11/04 12:09:03;;;;;;;4.72;0.85;;;;;;;18.27;41.23;93236.72;4960691;28;20427;-88
2022/11/04 12:12:04;;;;;;;1.50;0.60;;;;;;;19.16;42.93;93230.28;4977398;28;20041;-88
2022/11/04 12:14:57;;;;;;;11.68;1.15;;;;;;;18.98;42.02;93219.28;4944992;28;20047;-88